Lac-Megantic, Canada
Current Conditions -  °F | °C
As of 7:00 AM on Thursday 23 Oct 2014 (Local Time) from CYSC Reporting Station
NA  
Wind Chill: 36°   Ceiling: NA
Heat Index: 43°   Visibility: 9mi
Dew Point: 37°   Wind: 14mph
Humidity: 81%   Direction: 50°NE
Pressure: 30.03"   Gusts: 23mph
Location:  45.58°N, 70.88°W
Report Text: CYSC 231100Z AUTO 05012G20KT 9SM 06/03 A3003 RMK CLD MISG WX MISG VIS MISG PCPN MISG SLP176
Loading
Personal Weather Stations






























Interactive Weather Map
Tropical Storm Tracking
New forecast layout! Learn more

10-Day Weather Forecast

Advertisements
Track Severe Weather on mobile